createdAt,value
2018-03-26T00:00:16.503Z,0
2018-03-26T00:01:16.475Z,0
2018-03-26T00:02:16.755Z,0
2018-03-26T00:03:16.746Z,0
2018-03-26T00:04:16.792Z,0
2018-03-26T00:05:16.263Z,0
2018-03-26T00:06:16.449Z,0
2018-03-26T00:07:16.380Z,0
2018-03-26T00:08:16.356Z,0
2018-03-26T00:09:16.607Z,0
2018-03-26T00:10:15.857Z,0
2018-03-26T00:11:16.582Z,0
2018-03-26T00:12:16.258Z,0
2018-03-26T00:13:16.279Z,0
2018-03-26T00:14:16.285Z,0
2018-03-26T00:15:16.074Z,0
2018-03-26T00:16:16.024Z,0
2018-03-26T00:17:16.611Z,0
2018-03-26T00:18:16.204Z,0
2018-03-26T00:19:16.546Z,0
2018-03-26T00:20:16.459Z,0
2018-03-26T00:21:16.125Z,0
2018-03-26T00:22:16.422Z,0
2018-03-26T00:23:16.138Z,0
2018-03-26T00:24:15.814Z,0
2018-03-26T00:25:16.060Z,0
2018-03-26T00:26:15.823Z,0
2018-03-26T00:27:16.444Z,0
2018-03-26T00:28:15.506Z,0
2018-03-26T00:29:16.271Z,0
2018-03-26T00:30:16.244Z,0
2018-03-26T00:31:16.221Z,0
2018-03-26T00:32:15.688Z,0
2018-03-26T00:33:15.912Z,0
2018-03-26T00:34:15.623Z,0
2018-03-26T00:35:15.615Z,0
2018-03-26T00:36:15.626Z,0
2018-03-26T00:37:15.957Z,0
2018-03-26T00:38:15.965Z,0
2018-03-26T00:39:15.833Z,0
2018-03-26T00:40:15.254Z,0
2018-03-26T00:41:15.530Z,0
2018-03-26T00:42:15.829Z,0
2018-03-26T00:43:16.068Z,0
2018-03-26T00:44:16.039Z,0
2018-03-26T00:45:15.430Z,0
2018-03-26T00:46:16.018Z,0
2018-03-26T00:47:15.433Z,0
2018-03-26T00:48:15.640Z,0
2018-03-26T00:49:15.698Z,0
2018-03-26T00:50:15.336Z,0
2018-03-26T00:51:15.583Z,0
2018-03-26T00:52:15.572Z,0
2018-03-26T00:53:15.823Z,0
2018-03-26T00:54:15.262Z,0
2018-03-26T00:55:15.246Z,0
2018-03-26T00:56:16.015Z,0
2018-03-26T00:57:15.206Z,0
2018-03-26T00:58:15.191Z,0
2018-03-26T00:59:15.219Z,0
2018-03-26T01:00:15.493Z,0
2018-03-26T01:01:15.169Z,0
2018-03-26T01:02:15.458Z,0
2018-03-26T01:03:15.131Z,0
2018-03-26T01:04:15.143Z,0
2018-03-26T01:05:15.072Z,0
2018-03-26T01:06:15.649Z,0
2018-03-26T01:07:14.862Z,0
2018-03-26T01:08:15.311Z,0
2018-03-26T01:09:15.333Z,0
2018-03-26T01:10:15.059Z,0
2018-03-26T01:11:15.561Z,0
2018-03-26T01:12:15.509Z,0
2018-03-26T01:13:15.579Z,0
2018-03-26T01:14:15.432Z,0
2018-03-26T01:15:15.699Z,0
2018-03-26T01:16:15.233Z,0
2018-03-26T01:17:14.852Z,0
2018-03-26T01:18:15.146Z,0
2018-03-26T01:19:15.424Z,0
2018-03-26T01:20:15.137Z,0
2018-03-26T01:21:14.797Z,0
2018-03-26T01:22:14.791Z,0
2018-03-26T01:23:15.094Z,0
2018-03-26T01:24:15.013Z,0
2018-03-26T01:25:15.307Z,0
2018-03-26T01:26:14.721Z,0
2018-03-26T01:27:14.978Z,0
2018-03-26T01:28:14.987Z,0
2018-03-26T01:29:14.361Z,0
2018-03-26T01:30:14.614Z,0
2018-03-26T01:31:14.587Z,0
2018-03-26T01:32:14.573Z,0
2018-03-26T01:33:14.287Z,0
2018-03-26T01:34:14.592Z,0
2018-03-26T01:35:14.524Z,0
2018-03-26T01:36:15.029Z,0
2018-03-26T01:37:14.840Z,0
2018-03-26T01:38:14.227Z,0
2018-03-26T01:39:14.445Z,0
2018-03-26T01:40:15.003Z,0
2018-03-26T01:41:14.664Z,0
2018-03-26T01:42:14.388Z,0
2018-03-26T01:43:14.673Z,0
2018-03-26T01:44:14.708Z,0
2018-03-26T01:45:14.873Z,0
2018-03-26T01:46:14.367Z,0
2018-03-26T01:47:14.569Z,0
2018-03-26T01:48:14.586Z,0
2018-03-26T01:49:14.812Z,0
2018-03-26T01:50:14.837Z,0
2018-03-26T01:51:14.527Z,0
2018-03-26T01:52:14.554Z,0
2018-03-26T01:53:14.764Z,0
2018-03-26T01:54:13.946Z,0
2018-03-26T01:55:14.156Z,0
2018-03-26T01:56:14.414Z,0
2018-03-26T01:57:14.158Z,0
2018-03-26T01:58:13.841Z,0
2018-03-26T01:59:14.070Z,0
2018-03-26T02:00:14.369Z,0
2018-03-26T02:01:14.547Z,0
2018-03-26T02:02:14.291Z,0
2018-03-26T02:03:14.592Z,0
2018-03-26T02:04:13.974Z,0
2018-03-26T02:05:14.257Z,0
2018-03-26T02:06:13.937Z,0
2018-03-26T02:07:14.270Z,0
2018-03-26T02:08:14.471Z,0
2018-03-26T02:09:13.893Z,0
2018-03-26T02:10:14.398Z,0
2018-03-26T02:11:14.123Z,0
2018-03-26T02:12:13.580Z,0
2018-03-26T02:13:14.346Z,0
2018-03-26T02:14:13.793Z,0
2018-03-26T02:15:14.032Z,0
2018-03-26T02:16:14.291Z,0
2018-03-26T02:17:14.031Z,0
2018-03-26T02:18:13.718Z,0
2018-03-26T02:19:13.711Z,0
2018-03-26T02:20:13.410Z,0
2018-03-26T02:21:14.184Z,0
2018-03-26T02:22:13.913Z,0
2018-03-26T02:23:14.179Z,0
2018-03-26T02:24:14.150Z,0
2018-03-26T02:25:13.586Z,0
2018-03-26T02:26:13.848Z,0
2018-03-26T02:27:13.819Z,0
2018-03-26T02:28:13.529Z,0
2018-03-26T02:29:13.779Z,0
2018-03-26T02:30:13.769Z,0
2018-03-26T02:31:13.209Z,0
2018-03-26T02:32:13.192Z,0
2018-03-26T02:33:13.703Z,0
2018-03-26T02:34:13.714Z,0
2018-03-26T02:35:13.957Z,0
2018-03-26T02:36:13.647Z,0
2018-03-26T02:37:13.898Z,0
2018-03-26T02:38:13.631Z,0
2018-03-26T02:39:13.598Z,0
2018-03-26T02:40:13.858Z,0
2018-03-26T02:41:13.296Z,0
2018-03-26T02:42:13.529Z,0
2018-03-26T02:43:13.513Z,0
2018-03-26T02:44:13.606Z,0
2018-03-26T02:45:13.486Z,0
2018-03-26T02:46:13.534Z,0
2018-03-26T02:47:13.259Z,0
2018-03-26T02:48:13.174Z,0
2018-03-26T02:49:13.474Z,0
2018-03-26T02:50:13.393Z,0
2018-03-26T02:51:13.392Z,0
2018-03-26T02:52:13.641Z,0
2018-03-26T02:53:13.095Z,0
2018-03-26T02:54:13.315Z,0
2018-03-26T02:55:13.060Z,0
2018-03-26T02:56:13.546Z,0
2018-03-26T02:57:13.001Z,0
2018-03-26T02:58:13.274Z,0
2018-03-26T02:59:13.333Z,0
2018-03-26T03:00:13.249Z,0
2018-03-26T03:01:12.926Z,0
2018-03-26T03:02:13.424Z,0
2018-03-26T03:03:12.959Z,0
2018-03-26T03:04:12.592Z,0
2018-03-26T03:05:12.843Z,0
2018-03-26T03:06:13.099Z,0
2018-03-26T03:07:13.089Z,0
2018-03-26T03:08:13.060Z,0
2018-03-26T03:09:13.286Z,0
2018-03-26T03:10:13.273Z,0
2018-03-26T03:11:12.795Z,0
2018-03-26T03:12:12.987Z,0
2018-03-26T03:13:12.973Z,0
2018-03-26T03:14:12.671Z,0
2018-03-26T03:15:12.925Z,0
2018-03-26T03:16:12.633Z,0
2018-03-26T03:17:13.142Z,0
2018-03-26T03:18:13.133Z,0
2018-03-26T03:19:13.113Z,0
2018-03-26T03:20:12.816Z,0
2018-03-26T03:21:12.539Z,0
2018-03-26T03:22:12.524Z,0
2018-03-26T03:23:12.776Z,0
2018-03-26T03:24:12.480Z,0
2018-03-26T03:25:12.516Z,0
2018-03-26T03:26:12.720Z,0
2018-03-26T03:27:12.544Z,0
2018-03-26T03:28:12.858Z,0
2018-03-26T03:29:12.405Z,0
2018-03-26T03:30:12.975Z,0
2018-03-26T03:31:12.616Z,0
2018-03-26T03:32:12.533Z,0
2018-03-26T03:33:12.576Z,0
2018-03-26T03:34:12.289Z,0
2018-03-26T03:35:12.399Z,0
2018-03-26T03:36:12.529Z,0
2018-03-26T03:37:12.542Z,0
2018-03-26T03:38:11.948Z,0
2018-03-26T03:39:12.509Z,0
2018-03-26T03:40:12.763Z,0
2018-03-26T03:41:12.599Z,0
2018-03-26T03:42:12.134Z,0
2018-03-26T03:43:12.259Z,0
2018-03-26T03:44:12.455Z,0
2018-03-26T03:45:12.688Z,0
2018-03-26T03:46:12.059Z,0
2018-03-26T03:47:12.043Z,0
2018-03-26T03:48:11.808Z,0
2018-03-26T03:49:12.399Z,0
2018-03-26T03:50:12.068Z,0
2018-03-26T03:51:12.431Z,0
2018-03-26T03:52:12.017Z,0
2018-03-26T03:53:12.210Z,0
2018-03-26T03:54:12.476Z,0
2018-03-26T03:55:12.206Z,0
2018-03-26T03:56:12.142Z,0
2018-03-26T03:57:12.220Z,0
2018-03-26T03:58:12.102Z,0
2018-03-26T03:59:12.105Z,0
2018-03-26T04:00:11.962Z,0
2018-03-26T04:01:12.088Z,0
2018-03-26T04:02:12.546Z,0
2018-03-26T04:03:12.316Z,0
2018-03-26T04:04:12.250Z,0
2018-03-26T04:05:11.965Z,0
2018-03-26T04:06:12.126Z,0
2018-03-26T04:07:12.331Z,0
2018-03-26T04:08:11.408Z,0
2018-03-26T04:09:11.908Z,0
2018-03-26T04:10:11.914Z,0
2018-03-26T04:11:11.622Z,0
2018-03-26T04:12:11.901Z,0
2018-03-26T04:13:11.330Z,0
2018-03-26T04:14:11.911Z,0
2018-03-26T04:15:11.700Z,0
2018-03-26T04:16:11.222Z,0
2018-03-26T04:17:11.589Z,0
2018-03-26T04:18:11.174Z,0
2018-03-26T04:19:11.693Z,0
2018-03-26T04:20:11.674Z,0
2018-03-26T04:21:11.466Z,0
2018-03-26T04:22:11.934Z,0
2018-03-26T04:23:11.462Z,0
2018-03-26T04:24:11.136Z,0
2018-03-26T04:25:11.707Z,0
2018-03-26T04:26:11.705Z,0
2018-03-26T04:27:11.642Z,0
2018-03-26T04:28:11.247Z,0
2018-03-26T04:29:11.288Z,0
2018-03-26T04:30:10.943Z,0
2018-03-26T04:31:11.227Z,0
2018-03-26T04:32:11.706Z,0
2018-03-26T04:33:11.427Z,0
2018-03-26T04:34:11.403Z,0
2018-03-26T04:35:11.382Z,0
2018-03-26T04:36:11.375Z,0
2018-03-26T04:37:10.846Z,0
2018-03-26T04:38:11.084Z,0
2018-03-26T04:39:11.338Z,0
2018-03-26T04:40:11.076Z,0
2018-03-26T04:41:11.025Z,0
2018-03-26T04:42:10.978Z,0
2018-03-26T04:43:11.221Z,0
2018-03-26T04:44:11.226Z,0
2018-03-26T04:45:11.191Z,0
2018-03-26T04:46:10.904Z,0
2018-03-26T04:47:11.153Z,0
2018-03-26T04:48:11.126Z,0
2018-03-26T04:49:11.435Z,0
2018-03-26T04:50:11.083Z,4
2018-03-26T04:51:11.064Z,0
2018-03-26T04:52:11.045Z,0
2018-03-26T04:53:11.352Z,4
2018-03-26T04:54:11.280Z,0
2018-03-26T04:55:11.192Z,4
2018-03-26T04:56:11.426Z,4
2018-03-26T04:57:10.938Z,4
2018-03-26T04:58:11.240Z,8
2018-03-26T04:59:11.393Z,8
2018-03-26T05:00:10.534Z,8
2018-03-26T05:01:10.624Z,8
2018-03-26T05:02:10.848Z,8
2018-03-26T05:03:11.182Z,8
2018-03-26T05:04:10.957Z,8
2018-03-26T05:05:10.929Z,12
2018-03-26T05:06:11.053Z,12
2018-03-26T05:07:11.042Z,16
2018-03-26T05:08:11.056Z,20
2018-03-26T05:09:10.178Z,24
2018-03-26T05:10:10.959Z,28
2018-03-26T05:11:10.700Z,32
2018-03-26T05:12:10.691Z,32
2018-03-26T05:13:10.638Z,40
2018-03-26T05:14:10.902Z,40
2018-03-26T05:15:10.591Z,44
2018-03-26T05:16:10.305Z,48
2018-03-26T05:17:10.571Z,56
2018-03-26T05:18:10.495Z,60
2018-03-26T05:19:10.518Z,68
2018-03-26T05:20:10.490Z,76
2018-03-26T05:21:10.466Z,84
2018-03-26T05:22:10.189Z,96
2018-03-26T05:23:10.157Z,100
2018-03-26T05:24:10.420Z,104
2018-03-26T05:25:10.440Z,112
2018-03-26T05:26:10.383Z,116
2018-03-26T05:27:10.349Z,120
2018-03-26T05:28:10.336Z,124
2018-03-26T05:29:10.044Z,128
2018-03-26T05:30:10.029Z,136
2018-03-26T05:31:10.093Z,140
2018-03-26T05:32:10.639Z,148
2018-03-26T05:33:10.539Z,160
2018-03-26T05:34:10.496Z,168
2018-03-26T05:35:10.196Z,172
2018-03-26T05:36:09.681Z,180
2018-03-26T05:37:10.167Z,184
2018-03-26T05:38:10.440Z,188
2018-03-26T05:39:09.895Z,196
2018-03-26T05:40:10.101Z,212
2018-03-26T05:41:09.547Z,224
2018-03-26T05:42:10.094Z,240
2018-03-26T05:43:10.109Z,256
2018-03-26T05:44:10.099Z,272
2018-03-26T05:45:09.996Z,300
2018-03-26T05:46:09.921Z,336
2018-03-26T05:47:09.696Z,380
2018-03-26T05:48:09.679Z,432
2018-03-26T05:49:09.654Z,480
2018-03-26T05:50:09.912Z,520
2018-03-26T05:51:09.885Z,544
2018-03-26T05:52:09.908Z,536
2018-03-26T05:53:09.581Z,532
2018-03-26T05:54:09.571Z,512
2018-03-26T05:55:09.814Z,488
2018-03-26T05:56:10.090Z,460
2018-03-26T05:57:09.860Z,448
2018-03-26T05:58:10.085Z,448
2018-03-26T05:59:09.466Z,456
2018-03-26T06:00:09.448Z,468
2018-03-26T06:01:09.476Z,484
2018-03-26T06:02:10.063Z,508
2018-03-26T06:03:09.969Z,532
2018-03-26T06:04:09.409Z,576
2018-03-26T06:05:09.440Z,628
2018-03-26T06:06:09.396Z,688
2018-03-26T06:07:09.721Z,724
2018-03-26T06:08:09.904Z,732
2018-03-26T06:09:09.280Z,732
2018-03-26T06:10:09.325Z,736
2018-03-26T06:11:09.230Z,752
2018-03-26T06:12:09.220Z,808
2018-03-26T06:13:09.286Z,876
2018-03-26T06:14:09.205Z,944
2018-03-26T06:15:09.148Z,992
2018-03-26T06:16:09.178Z,1024
2018-03-26T06:17:09.244Z,1044
2018-03-26T06:18:08.926Z,1048
2018-03-26T06:19:09.115Z,1044
2018-03-26T06:20:09.130Z,1044
2018-03-26T06:21:09.326Z,1052
2018-03-26T06:22:09.113Z,1084
2018-03-26T06:23:09.548Z,1132
2018-03-26T06:24:09.034Z,1168
2018-03-26T06:25:09.228Z,1196
2018-03-26T06:26:09.509Z,1220
2018-03-26T06:27:09.189Z,1244
2018-03-26T06:28:09.177Z,1304
2018-03-26T06:29:09.155Z,1388
2018-03-26T06:30:09.135Z,1496
2018-03-26T06:31:08.853Z,1624
2018-03-26T06:32:08.827Z,1752
2018-03-26T06:33:09.073Z,1848
2018-03-26T06:34:08.789Z,1872
2018-03-26T06:35:09.032Z,1772
2018-03-26T06:36:09.063Z,1604
2018-03-26T06:37:09.026Z,1548
2018-03-26T06:38:09.140Z,1560
2018-03-26T06:39:08.728Z,1604
2018-03-26T06:40:08.961Z,1652
2018-03-26T06:41:09.187Z,1640
2018-03-26T06:42:08.631Z,1596
2018-03-26T06:43:08.615Z,1588
2018-03-26T06:44:08.660Z,1620
2018-03-26T06:45:09.210Z,1672
2018-03-26T06:46:08.892Z,1696
2018-03-26T06:47:09.141Z,1724
2018-03-26T06:48:08.790Z,1776
2018-03-26T06:49:08.503Z,1852
2018-03-26T06:50:08.299Z,2000
2018-03-26T06:51:08.727Z,2224
2018-03-26T06:52:08.540Z,2504
2018-03-26T06:53:08.723Z,2800
2018-03-26T06:54:08.732Z,2860
2018-03-26T06:55:08.746Z,2660
2018-03-26T06:56:08.672Z,2540
2018-03-26T06:57:08.348Z,2596
2018-03-26T06:58:08.594Z,2836
2018-03-26T06:59:08.583Z,3160
2018-03-26T07:00:08.662Z,3448
2018-03-26T07:01:08.268Z,3708
2018-03-26T07:02:08.511Z,3912
2018-03-26T07:03:08.505Z,3992
2018-03-26T07:04:08.217Z,4012
2018-03-26T07:05:08.471Z,4036
2018-03-26T07:06:08.442Z,4136
2018-03-26T07:07:07.884Z,4260
2018-03-26T07:08:07.868Z,4380
2018-03-26T07:09:08.660Z,4476
2018-03-26T07:10:08.378Z,4596
2018-03-26T07:11:08.342Z,4692
2018-03-26T07:12:08.065Z,4712
2018-03-26T07:13:08.058Z,4688
2018-03-26T07:14:08.508Z,4532
2018-03-26T07:15:08.276Z,4368
2018-03-26T07:16:08.256Z,4304
2018-03-26T07:17:08.518Z,4296
2018-03-26T07:18:08.407Z,4348
2018-03-26T07:19:08.542Z,4360
2018-03-26T07:20:07.910Z,4332
2018-03-26T07:21:07.629Z,4324
2018-03-26T07:22:08.139Z,4376
2018-03-26T07:23:08.196Z,4460
2018-03-26T07:24:07.844Z,4688
2018-03-26T07:25:08.352Z,5096
2018-03-26T07:26:08.010Z,5700
2018-03-26T07:27:08.058Z,6196
2018-03-26T07:28:08.341Z,6384
2018-03-26T07:29:08.006Z,6224
2018-03-26T07:30:07.806Z,6044
2018-03-26T07:31:08.255Z,6028
2018-03-26T07:32:07.957Z,5988
2018-03-26T07:33:08.226Z,5992
2018-03-26T07:34:07.395Z,6088
2018-03-26T07:35:07.419Z,6352
2018-03-26T07:36:07.905Z,6632
2018-03-26T07:37:07.862Z,7092
2018-03-26T07:38:07.584Z,7388
2018-03-26T07:39:07.833Z,7360
2018-03-26T07:40:08.176Z,7376
2018-03-26T07:41:07.534Z,7396
2018-03-26T07:42:07.637Z,7420
2018-03-26T07:43:07.811Z,7532
2018-03-26T07:44:07.746Z,7640
2018-03-26T07:45:07.459Z,7668
2018-03-26T07:46:07.174Z,7616
2018-03-26T07:47:07.700Z,7620
2018-03-26T07:48:07.974Z,7740
2018-03-26T07:49:07.724Z,7832
2018-03-26T07:50:07.248Z,7960
2018-03-26T07:51:07.667Z,8228
2018-03-26T07:52:07.469Z,8372
2018-03-26T07:53:07.537Z,8692
2018-03-26T07:54:07.624Z,8876
2018-03-26T07:55:08.073Z,8808
2018-03-26T07:56:07.810Z,8720
2018-03-26T07:57:07.943Z,8340
2018-03-26T07:58:07.522Z,8204
2018-03-26T07:59:07.481Z,8296
2018-03-26T08:00:07.220Z,8456
2018-03-26T08:01:07.185Z,8440
2018-03-26T08:02:07.977Z,8296
2018-03-26T08:03:07.486Z,8316
2018-03-26T08:04:07.703Z,8560
2018-03-26T08:05:07.389Z,8784
2018-03-26T08:06:07.880Z,8872
2018-03-26T08:07:07.356Z,8632
2018-03-26T08:08:07.120Z,8320
2018-03-26T08:09:07.480Z,8088
2018-03-26T08:10:07.663Z,8040
2018-03-26T08:11:07.286Z,8644
2018-03-26T08:12:07.296Z,8596
2018-03-26T08:13:07.258Z,8356
2018-03-26T08:14:07.508Z,8384
2018-03-26T08:15:07.509Z,8680
2018-03-26T08:16:07.205Z,8496
2018-03-26T08:17:07.545Z,7664
2018-03-26T08:18:06.919Z,8400
2018-03-26T08:19:07.200Z,8196
2018-03-26T08:20:07.149Z,7960
2018-03-26T08:21:06.902Z,10924
2018-03-26T08:22:06.864Z,24448
2018-03-26T08:23:06.834Z,27968
2018-03-26T08:24:07.117Z,26176
2018-03-26T08:25:06.806Z,26848
2018-03-26T08:26:07.178Z,31264
2018-03-26T08:27:06.769Z,31296
2018-03-26T08:28:06.484Z,33088
2018-03-26T08:29:07.005Z,32000
2018-03-26T08:30:06.986Z,19712
2018-03-26T08:31:06.737Z,12032
2018-03-26T08:32:06.974Z,15768
2018-03-26T08:33:06.687Z,24160
2018-03-26T08:34:06.938Z,27168
2018-03-26T08:35:06.986Z,25056
2018-03-26T08:36:06.940Z,20224
2018-03-26T08:37:06.753Z,19584
2018-03-26T08:38:06.897Z,24128
2018-03-26T08:39:06.642Z,21760
2018-03-26T08:40:06.609Z,22016
2018-03-26T08:41:06.872Z,25536
2018-03-26T08:42:06.940Z,25856
2018-03-26T08:43:07.229Z,24736
2018-03-26T08:44:06.855Z,24096
2018-03-26T08:45:07.090Z,23296
2018-03-26T08:46:06.826Z,24416
2018-03-26T08:47:06.538Z,29216
2018-03-26T08:48:06.538Z,37184
2018-03-26T08:49:06.520Z,37568
2018-03-26T08:50:06.750Z,34560
2018-03-26T08:51:06.514Z,32832
2018-03-26T08:52:06.775Z,28704
2018-03-26T08:53:06.824Z,27872
2018-03-26T08:54:06.758Z,23936
2018-03-26T08:55:06.744Z,25888
2018-03-26T08:56:06.457Z,37696
2018-03-26T08:57:06.187Z,43200
2018-03-26T08:58:06.701Z,38144
2018-03-26T08:59:06.716Z,37312
2018-03-26T09:00:06.699Z,36512
2018-03-26T09:01:06.428Z,34880
2018-03-26T09:02:06.684Z,25952
2018-03-26T09:03:06.680Z,26400
2018-03-26T09:04:06.412Z,21056
2018-03-26T09:05:06.665Z,26944
2018-03-26T09:06:06.392Z,26816
2018-03-26T09:07:06.637Z,16128
2018-03-26T09:08:06.369Z,12548
2018-03-26T09:09:06.635Z,21376
2018-03-26T09:10:06.631Z,31712
2018-03-26T09:11:06.347Z,33216
2018-03-26T09:12:06.683Z,27584
2018-03-26T09:13:06.616Z,23104
2018-03-26T09:14:06.600Z,22624
2018-03-26T09:15:06.337Z,21760
2018-03-26T09:16:06.582Z,15460
2018-03-26T09:17:06.321Z,16704
2018-03-26T09:18:06.598Z,20672
2018-03-26T09:19:06.023Z,18528
2018-03-26T09:20:06.313Z,18880
2018-03-26T09:21:06.552Z,25952
2018-03-26T09:22:06.610Z,36736
2018-03-26T09:23:06.316Z,35104
2018-03-26T09:24:06.588Z,31808
2018-03-26T09:25:05.991Z,27296
2018-03-26T09:26:06.610Z,18080
2018-03-26T09:27:06.502Z,11144
2018-03-26T09:28:06.493Z,9576
2018-03-26T09:29:06.230Z,22240
2018-03-26T09:30:06.944Z,28480
2018-03-26T09:31:06.770Z,20064
2018-03-26T09:32:06.460Z,18240
2018-03-26T09:33:06.764Z,19968
2018-03-26T09:34:06.462Z,24800
2018-03-26T09:35:05.907Z,25440
2018-03-26T09:36:06.812Z,14704
2018-03-26T09:37:06.695Z,17280
2018-03-26T09:38:05.975Z,36448
2018-03-26T09:39:06.420Z,30880
2018-03-26T09:40:06.407Z,21024
2018-03-26T09:41:06.395Z,17536
2018-03-26T09:42:06.126Z,22560
2018-03-26T09:43:06.719Z,36928
2018-03-26T09:44:06.102Z,28000
2018-03-26T09:45:06.366Z,13520
2018-03-26T09:46:06.357Z,10468
2018-03-26T09:47:06.625Z,12576
2018-03-26T09:48:06.074Z,12680
2018-03-26T09:49:06.396Z,14300
2018-03-26T09:50:06.315Z,20704
2018-03-26T09:51:06.329Z,20864
2018-03-26T09:52:06.304Z,13636
2018-03-26T09:53:06.033Z,15404
2018-03-26T09:54:06.021Z,27712
2018-03-26T09:55:06.007Z,35936
2018-03-26T09:56:06.007Z,38784
2018-03-26T09:57:05.735Z,36352
2018-03-26T09:58:06.526Z,27840
2018-03-26T09:59:05.983Z,25088
2018-03-26T10:00:05.968Z,19456
2018-03-26T10:01:06.230Z,19488
2018-03-26T10:02:06.436Z,16280
2018-03-26T10:03:05.687Z,16768
2018-03-26T10:04:06.206Z,17536
2018-03-26T10:05:06.206Z,21088
2018-03-26T10:06:05.930Z,19744
2018-03-26T10:07:06.185Z,17568
2018-03-26T10:08:05.916Z,18368
2018-03-26T10:09:05.908Z,26720
2018-03-26T10:10:06.164Z,25920
2018-03-26T10:11:06.168Z,28224
2018-03-26T10:12:06.146Z,49472
2018-03-26T10:13:05.866Z,52384
2018-03-26T10:14:06.070Z,34784
2018-03-26T10:15:05.853Z,22144
2018-03-26T10:16:05.847Z,19648
2018-03-26T10:17:06.107Z,17728
2018-03-26T10:18:05.860Z,27840
2018-03-26T10:19:05.894Z,44416
2018-03-26T10:20:05.858Z,41632
2018-03-26T10:21:06.353Z,40992
2018-03-26T10:22:06.100Z,42080
2018-03-26T10:23:05.804Z,38080
2018-03-26T10:24:06.386Z,26656
2018-03-26T10:25:06.334Z,19232
2018-03-26T10:26:06.042Z,23776
2018-03-26T10:27:06.320Z,29504
2018-03-26T10:28:06.058Z,38112
2018-03-26T10:29:06.057Z,43648
2018-03-26T10:30:05.761Z,42912
2018-03-26T10:31:06.150Z,34208
2018-03-26T10:32:05.760Z,33632
2018-03-26T10:33:06.014Z,34752
2018-03-26T10:34:05.746Z,35072
2018-03-26T10:35:05.465Z,43232
2018-03-26T10:36:05.989Z,51488
2018-03-26T10:37:06.042Z,49056
2018-03-26T10:38:05.744Z,27776
2018-03-26T10:39:06.073Z,12852
2018-03-26T10:40:05.983Z,24896
2018-03-26T10:41:06.253Z,49792
2018-03-26T10:42:05.688Z,54848
2018-03-26T10:43:05.956Z,48736
2018-03-26T10:44:06.244Z,40160
2018-03-26T10:45:06.010Z,36160
2018-03-26T10:46:05.933Z,33344
2018-03-26T10:47:06.199Z,30880
2018-03-26T10:48:06.472Z,33984
2018-03-26T10:49:06.394Z,31616
2018-03-26T10:50:05.981Z,28064
2018-03-26T10:51:05.869Z,35168
2018-03-26T10:52:06.074Z,35488
2018-03-26T10:53:06.280Z,36544
2018-03-26T10:54:05.950Z,35648
2018-03-26T10:55:05.989Z,42880
2018-03-26T10:56:05.969Z,41184
2018-03-26T10:57:05.614Z,47200
2018-03-26T10:58:05.935Z,56224
2018-03-26T10:59:05.675Z,62816
2018-03-26T11:00:05.600Z,75264
2018-03-26T11:01:06.179Z,12300
2018-03-26T11:02:05.865Z,15356
2018-03-26T11:03:05.593Z,53856
2018-03-26T11:04:05.356Z,50112
2018-03-26T11:05:05.581Z,29440
2018-03-26T11:06:05.606Z,48928
2018-03-26T11:07:05.580Z,34656
2018-03-26T11:08:05.576Z,22400
2018-03-26T11:09:06.005Z,12104
2018-03-26T11:10:05.938Z,72832
2018-03-26T11:11:05.743Z,87072
2018-03-26T11:12:06.188Z,89568
2018-03-26T11:13:05.774Z,79520
2018-03-26T11:14:05.815Z,37344
2018-03-26T11:15:05.931Z,53216
2018-03-26T11:16:05.563Z,49664
2018-03-26T11:17:05.838Z,52992
2018-03-26T11:18:06.205Z,63808
2018-03-26T11:19:05.889Z,66944
2018-03-26T11:20:05.794Z,63264
2018-03-26T11:21:05.836Z,20128
2018-03-26T11:22:05.916Z,68960
2018-03-26T11:23:06.074Z,61952
2018-03-26T11:24:05.566Z,58048
2018-03-26T11:25:05.790Z,57088
2018-03-26T11:26:05.903Z,60160
2018-03-26T11:27:05.813Z,65408
2018-03-26T11:28:05.862Z,64352
2018-03-26T11:29:05.818Z,63104
2018-03-26T11:30:06.066Z,60160
2018-03-26T11:31:05.784Z,58432
2018-03-26T11:32:05.645Z,50368
2018-03-26T11:33:05.502Z,39584
2018-03-26T11:34:05.786Z,36032
2018-03-26T11:35:05.502Z,39584
2018-03-26T11:36:05.872Z,37856
2018-03-26T11:37:05.548Z,31424
2018-03-26T11:38:05.765Z,31360
2018-03-26T11:39:06.034Z,32576
2018-03-26T11:40:06.035Z,32800
2018-03-26T11:41:06.028Z,31616
2018-03-26T11:42:06.093Z,23936
2018-03-26T11:43:05.583Z,26688
2018-03-26T11:44:05.493Z,32640
2018-03-26T11:45:05.522Z,22496
2018-03-26T11:46:05.801Z,15640
2018-03-26T11:47:05.525Z,14672
2018-03-26T11:48:05.769Z,15200
2018-03-26T11:49:05.533Z,16224
2018-03-26T11:50:06.002Z,18304
2018-03-26T11:51:05.464Z,53120
2018-03-26T11:52:05.463Z,56640
2018-03-26T11:53:06.050Z,52416
2018-03-26T11:54:05.180Z,49248
2018-03-26T11:55:05.447Z,40064
2018-03-26T11:56:05.710Z,49280
2018-03-26T11:57:05.174Z,50432
2018-03-26T11:58:05.695Z,46624
2018-03-26T11:59:05.425Z,50144
2018-03-26T12:00:05.709Z,49088
2018-03-26T12:01:05.416Z,22752
2018-03-26T12:02:05.946Z,51744
2018-03-26T12:03:05.949Z,54784
2018-03-26T12:04:05.407Z,52256
2018-03-26T12:05:05.411Z,52448
2018-03-26T12:06:05.133Z,54432
2018-03-26T12:07:05.662Z,43872
2018-03-26T12:08:05.918Z,52544
2018-03-26T12:09:05.387Z,18240
2018-03-26T12:10:05.435Z,19520
2018-03-26T12:11:05.371Z,51104
2018-03-26T12:12:05.645Z,51360
2018-03-26T12:13:05.643Z,52800
2018-03-26T12:14:05.367Z,51392
2018-03-26T12:15:05.424Z,52576
2018-03-26T12:16:05.889Z,58176
2018-03-26T12:17:05.887Z,66304
2018-03-26T12:18:05.361Z,71200
2018-03-26T12:19:05.626Z,74688
2018-03-26T12:20:05.872Z,73536
2018-03-26T12:21:05.337Z,70304
2018-03-26T12:22:05.868Z,65408
2018-03-26T12:23:05.601Z,55424
2018-03-26T12:24:05.605Z,59200
2018-03-26T12:25:05.593Z,59008
2018-03-26T12:26:05.322Z,57120
2018-03-26T12:27:05.859Z,60256
2018-03-26T12:28:05.862Z,64256
2018-03-26T12:29:05.053Z,60192
2018-03-26T12:30:05.050Z,63904
2018-03-26T12:31:05.329Z,65472
2018-03-26T12:32:05.844Z,54464
2018-03-26T12:33:05.843Z,35584
2018-03-26T12:34:05.310Z,18080
2018-03-26T12:35:05.307Z,16040
2018-03-26T12:36:05.576Z,18528
2018-03-26T12:37:05.584Z,42112
2018-03-26T12:38:05.570Z,48928
2018-03-26T12:39:05.567Z,54784
2018-03-26T12:40:05.628Z,55872
2018-03-26T12:41:05.298Z,62560
2018-03-26T12:42:05.555Z,68320
2018-03-26T12:43:05.294Z,60288
2018-03-26T12:44:05.569Z,60640
2018-03-26T12:45:05.022Z,59296
2018-03-26T12:46:05.290Z,46144
2018-03-26T12:47:05.554Z,44128
2018-03-26T12:48:05.543Z,54944
2018-03-26T12:49:05.804Z,62176
2018-03-26T12:50:05.272Z,59680
2018-03-26T12:51:05.540Z,59136
2018-03-26T12:52:05.801Z,60000
2018-03-26T12:53:05.276Z,55104
2018-03-26T12:54:05.266Z,66976
2018-03-26T12:55:05.533Z,73120
2018-03-26T12:56:05.314Z,73280
2018-03-26T12:57:05.272Z,72896
2018-03-26T12:58:05.794Z,81312
2018-03-26T12:59:05.529Z,73760
2018-03-26T13:00:05.642Z,73888
2018-03-26T13:01:05.533Z,70656
2018-03-26T13:02:05.261Z,67616
2018-03-26T13:03:05.260Z,62048
2018-03-26T13:04:05.528Z,53504
2018-03-26T13:05:05.846Z,55744
2018-03-26T13:06:05.527Z,54048
2018-03-26T13:07:05.788Z,57760
2018-03-26T13:08:05.526Z,64704
2018-03-26T13:09:05.791Z,68832
2018-03-26T13:10:05.523Z,70016
2018-03-26T13:11:05.525Z,65120
2018-03-26T13:12:05.786Z,57600
2018-03-26T13:13:05.786Z,58464
2018-03-26T13:14:05.525Z,58656
2018-03-26T13:15:05.003Z,65280
2018-03-26T13:16:05.259Z,61408
2018-03-26T13:17:05.525Z,60576
2018-03-26T13:18:05.522Z,52288
2018-03-26T13:19:05.539Z,61120
2018-03-26T13:20:05.533Z,59296
2018-03-26T13:21:05.001Z,54848
2018-03-26T13:22:05.256Z,56992
2018-03-26T13:23:05.270Z,58496
2018-03-26T13:24:05.528Z,60448
2018-03-26T13:25:05.274Z,57824
2018-03-26T13:26:05.264Z,48224
2018-03-26T13:27:05.790Z,48672
2018-03-26T13:28:05.275Z,47424
2018-03-26T13:29:05.537Z,46752
2018-03-26T13:30:05.527Z,44224
2018-03-26T13:31:05.268Z,44192
2018-03-26T13:32:05.532Z,52384
2018-03-26T13:33:05.259Z,64192
2018-03-26T13:34:05.521Z,70816
2018-03-26T13:35:05.259Z,60320
2018-03-26T13:36:05.264Z,58976
2018-03-26T13:37:05.523Z,62880
2018-03-26T13:38:05.256Z,56512
2018-03-26T13:39:05.521Z,60768
2018-03-26T13:40:05.265Z,59552
2018-03-26T13:41:05.277Z,57280